Time;durP1;ratioP1;P1;durP2;ratioP2;P2;SDS_P1;SDS_P2;PMS_P1;PMS_P2;Temp;Humidity;BMP_temperature;BMP_pressure;BME280_temperature;BME280_humidity;BME280_pressure;Samples;Min_cycle;Max_cycle;Signal;HPM_P1;HPM_P2
2023/09/29 00:18:56;;;;;;;53.43;36.43;;;12.00;99.90;;;;;;5682337;24;20876;-86
2023/09/29 00:54:29;;;;;;;50.70;37.70;;;11.90;99.90;;;;;;5923706;24;20208;-84
2023/09/29 01:30:00;;;;;;;56.13;39.27;;;11.50;99.90;;;;;;6040840;23;20953;-86
2023/09/29 02:00:23;;;;;;;54.90;39.77;;;11.50;99.90;;;;;;5855773;24;20196;-85
2023/09/29 02:25:51;;;;;;;60.27;41.47;;;11.50;99.90;;;;;;5858898;23;20234;-86
2023/09/29 02:50:47;;;;;;;65.03;44.43;;;11.30;99.90;;;;;;5818931;24;20510;-86
2023/09/29 03:11:25;;;;;;;68.63;49.17;;;12.00;99.90;;;;;;5947484;23;21019;-86
2023/09/29 03:41:29;;;;;;;69.43;46.87;;;11.60;99.90;;;;;;5807181;24;20809;-85
2023/09/29 04:01:57;;;;;;;71.20;48.60;;;11.20;99.90;;;;;;5647245;25;20247;-84
2023/09/29 04:42:07;;;;;;;81.47;52.13;;;11.10;99.90;;;;;;5792662;24;20461;-85
2023/09/29 05:03:03;;;;;;;82.13;51.13;;;11.10;99.90;;;;;;5969777;23;20246;-85
2023/09/29 05:28:08;;;;;;;74.57;50.20;;;11.60;99.90;;;;;;5936846;23;20246;-84
2023/09/29 05:43:35;;;;;;;74.63;52.73;;;12.20;99.90;;;;;;5962919;23;20188;-86
2023/09/29 06:08:40;;;;;;;54.13;43.27;;;13.30;99.90;;;;;;5883451;24;20504;-86
2023/09/29 06:28:47;;;;;;;41.13;32.33;;;14.20;99.90;;;;;;5767000;24;20197;-87
2023/09/29 06:54:31;;;;;;;27.80;23.37;;;15.10;99.90;;;;;;5784000;24;20212;-87
2023/09/29 07:20:04;;;;;;;26.53;21.57;;;16.50;99.90;;;;;;5814547;24;20185;-81
2023/09/29 07:55:19;;;;;;;23.43;18.47;;;18.20;99.90;;;;;;5852425;23;21014;-84
2023/09/29 08:25:57;;;;;;;21.77;17.80;;;19.20;99.90;;;;;;5766602;24;20438;-85
2023/09/29 08:51:08;;;;;;;19.75;14.20;;;20.10;99.90;;;;;;5785528;24;20471;-86
2023/09/29 09:11:42;;;;;;;18.95;14.48;;;20.90;99.90;;;;;;5716930;24;20190;-82
2023/09/29 09:41:29;;;;;;;18.40;14.25;;;21.50;97.20;;;;;;5595923;24;20436;-83
2023/09/29 10:02:07;;;;;;;20.77;14.10;;;21.90;95.10;;;;;;5642283;24;20501;-85
2023/09/29 10:27:30;;;;;;;12.88;10.70;;;22.40;89.30;;;;;;5733245;24;20207;-87
2023/09/29 10:58:15;;;;;;;11.13;8.75;;;23.40;76.80;;;;;;5959375;23;20442;-85
2023/09/29 11:02:35;;;;;;;10.68;8.60;;;23.30;73.00;;;;;;5872992;23;20447;-84
2023/09/29 11:23:28;;;;;;;9.02;8.13;;;24.20;65.00;;;;;;5917822;23;20853;-85
2023/09/29 11:43:46;;;;;;;9.93;6.85;;;24.50;62.00;;;;;;5956739;23;20673;-85
2023/09/29 12:14:11;;;;;;;9.05;6.97;;;24.90;57.50;;;;;;5763594;24;20207;-84
2023/09/29 12:44:06;;;;;;;9.95;6.35;;;25.30;55.90;;;;;;5840306;24;20528;-85
2023/09/29 13:14:31;;;;;;;6.13;5.43;;;25.50;55.70;;;;;;5753487;24;20246;-86
2023/09/29 13:35:22;;;;;;;7.13;5.85;;;25.90;55.10;;;;;;5878410;24;20276;-83
2023/09/29 14:11:03;;;;;;;7.97;6.15;;;25.50;51.40;;;;;;5766764;24;20289;-85
2023/09/29 14:15:33;;;;;;;7.93;6.10;;;25.40;52.20;;;;;;5635558;24;20722;-85
2023/09/29 14:36:07;;;;;;;8.13;5.78;;;25.00;51.00;;;;;;5686626;24;20505;-83
2023/09/29 15:21:56;;;;;;;6.38;5.78;;;23.60;53.70;;;;;;5568605;25;20200;-84
2023/09/29 17:13:32;;;;;;;10.07;8.20;;;17.60;99.90;;;;;;5647891;24;20309;-84
2023/09/29 17:33:37;;;;;;;11.97;8.63;;;18.00;95.90;;;;;;5819508;24;20194;-85
2023/09/29 17:58:54;;;;;;;12.97;9.30;;;18.60;92.10;;;;;;5722246;24;20177;-84
2023/09/29 18:14:29;;;;;;;12.13;9.53;;;18.40;92.90;;;;;;5774112;24;20184;-84
2023/09/29 18:18:48;;;;;;;12.33;9.37;;;18.30;92.50;;;;;;5593790;24;20553;-84
2023/09/29 18:49:22;;;;;;;13.33;10.77;;;17.60;99.90;;;;;;5584575;24;20650;-85
2023/09/29 19:10:02;;;;;;;14.60;10.93;;;17.80;99.10;;;;;;5679178;24;20791;-83
2023/09/29 19:30:27;;;;;;;13.10;11.57;;;18.60;91.50;;;;;;5765300;24;20235;-84
2023/09/29 20:00:45;;;;;;;13.10;11.73;;;18.00;96.30;;;;;;6002547;23;20174;-84
2023/09/29 20:26:15;;;;;;;16.50;13.47;;;16.40;99.90;;;;;;5759776;24;20182;-84
2023/09/29 20:56:46;;;;;;;16.97;13.50;;;15.70;99.90;;;;;;5884408;23;20617;-84
2023/09/29 21:01:06;;;;;;;17.00;14.30;;;15.70;99.90;;;;;;5884322;23;20591;-85
2023/09/29 21:26:55;;;;;;;20.73;15.10;;;15.40;99.90;;;;;;5790863;24;20463;-83
2023/09/29 22:07:36;;;;;;;18.43;15.47;;;15.30;99.90;;;;;;5938325;23;20722;-86
2023/09/29 22:32:36;;;;;;;18.23;14.70;;;14.90;99.90;;;;;;5758407;24;20596;-84
2023/09/29 22:53:26;;;;;;;21.80;16.77;;;14.70;99.90;;;;;;5757122;24;20554;-84
2023/09/29 22:57:44;;;;;;;23.60;17.03;;;14.70;99.90;;;;;;5677494;24;20526;-83
2023/09/29 23:18:18;;;;;;;22.73;17.60;;;14.30;99.90;;;;;;5593802;24;20623;-86
